createdAt,value
2023-01-25T00:00:06.721Z,8.50
2023-01-25T00:03:14.776Z,8.90
2023-01-25T00:06:03.048Z,9.40
2023-01-25T00:08:52.131Z,9.30
2023-01-25T00:11:40.495Z,10.20
2023-01-25T00:14:28.783Z,9.00
2023-01-25T00:17:17.062Z,7.80
2023-01-25T00:20:05.859Z,7.60
2023-01-25T00:22:53.969Z,7.90
2023-01-25T00:25:41.982Z,8.30
2023-01-25T00:28:30.058Z,8.00
2023-01-25T00:31:33.400Z,9.20
2023-01-25T00:34:27.169Z,8.10
2023-01-25T00:37:18.329Z,8.70
2023-01-25T00:40:07.593Z,8.80
2023-01-25T00:42:55.913Z,7.40
2023-01-25T00:45:43.861Z,8.10
2023-01-25T00:48:31.796Z,7.80
2023-01-25T00:51:22.055Z,8.40
2023-01-25T00:54:10.134Z,7.80
2023-01-25T00:56:58.298Z,9.20
2023-01-25T00:59:47.637Z,7.80
2023-01-25T01:02:35.587Z,8.50
2023-01-25T01:05:23.520Z,8.60
2023-01-25T01:08:15.447Z,8.00
2023-01-25T01:11:07.023Z,8.40
2023-01-25T01:13:58.041Z,8.40
2023-01-25T01:16:46.454Z,6.30
2023-01-25T01:19:34.307Z,9.10
2023-01-25T01:22:22.067Z,8.30
2023-01-25T01:25:10.940Z,7.60
2023-01-25T01:27:58.580Z,7.90
2023-01-25T01:30:46.597Z,8.30
2023-01-25T01:33:36.129Z,8.10
2023-01-25T01:36:26.897Z,8.70
2023-01-25T01:39:15.112Z,8.90
2023-01-25T01:42:03.703Z,9.10
2023-01-25T01:44:54.422Z,6.30
2023-01-25T01:47:46.069Z,8.80
2023-01-25T01:50:34.983Z,8.80
2023-01-25T01:53:25.940Z,8.60
2023-01-25T01:56:22.073Z,7.80
2023-01-25T01:59:11.395Z,9.10
2023-01-25T02:01:59.506Z,8.40
2023-01-25T02:04:49.369Z,8.90
2023-01-25T02:07:39.006Z,8.20
2023-01-25T02:10:28.744Z,8.10
2023-01-25T02:13:20.050Z,7.50
2023-01-25T02:16:17.692Z,7.10
2023-01-25T02:19:08.655Z,8.40
2023-01-25T02:21:58.868Z,8.00
2023-01-25T02:24:57.004Z,8.10
2023-01-25T02:28:16.790Z,7.50
2023-01-25T02:31:05.428Z,9.00
2023-01-25T02:33:53.569Z,8.40
2023-01-25T02:36:42.108Z,6.20
2023-01-25T02:39:30.276Z,6.70
2023-01-25T02:42:18.081Z,8.90
2023-01-25T02:45:10.036Z,8.40
2023-01-25T02:47:58.025Z,8.60
2023-01-25T02:50:45.910Z,8.70
2023-01-25T02:53:34.118Z,9.30
2023-01-25T02:56:23.861Z,6.90
2023-01-25T02:59:13.498Z,8.50
2023-01-25T03:02:02.777Z,10.10
2023-01-25T03:04:51.510Z,8.30
2023-01-25T03:07:39.815Z,8.80
2023-01-25T03:10:28.329Z,9.20
2023-01-25T03:13:17.178Z,8.50
2023-01-25T03:16:09.877Z,8.80
2023-01-25T03:18:59.141Z,8.40
2023-01-25T03:21:47.293Z,8.90
2023-01-25T03:24:35.278Z,9.10
2023-01-25T03:27:24.306Z,10.20
2023-01-25T03:30:15.571Z,9.40
2023-01-25T03:33:03.714Z,8.30
2023-01-25T03:35:55.877Z,9.60
2023-01-25T03:38:43.627Z,8.20
2023-01-25T03:41:32.696Z,8.70
2023-01-25T03:44:20.864Z,9.50
2023-01-25T03:47:08.980Z,8.40
2023-01-25T03:49:57.221Z,9.10
2023-01-25T03:52:47.425Z,8.20
2023-01-25T03:55:36.225Z,9.70
2023-01-25T03:58:25.142Z,8.00
2023-01-25T04:01:13.838Z,8.20
2023-01-25T04:04:02.016Z,7.80
2023-01-25T04:06:50.044Z,9.50
2023-01-25T04:09:39.044Z,9.50
2023-01-25T04:12:27.753Z,10.00
2023-01-25T04:15:15.667Z,9.10
2023-01-25T04:18:03.835Z,8.50
2023-01-25T04:20:56.592Z,9.10
2023-01-25T04:23:44.812Z,10.00
2023-01-25T04:26:33.039Z,10.30
2023-01-25T04:29:28.697Z,8.90
2023-01-25T04:32:23.698Z,9.30
2023-01-25T04:35:12.373Z,10.20
2023-01-25T04:38:00.895Z,11.10
2023-01-25T04:40:57.656Z,8.40
2023-01-25T04:43:45.671Z,10.80
2023-01-25T04:46:35.165Z,10.00
2023-01-25T04:49:23.036Z,10.30
2023-01-25T04:52:10.830Z,10.40
2023-01-25T04:54:58.771Z,9.50
2023-01-25T04:57:49.875Z,10.30
2023-01-25T05:00:38.745Z,9.20
2023-01-25T05:03:27.687Z,10.50
2023-01-25T05:06:15.632Z,9.60
2023-01-25T05:09:03.690Z,9.60
2023-01-25T05:11:51.707Z,9.80
2023-01-25T05:14:56.288Z,10.90
2023-01-25T05:17:44.326Z,9.20
2023-01-25T05:20:32.136Z,9.70
2023-01-25T05:23:20.361Z,11.90
2023-01-25T05:26:27.349Z,10.80
2023-01-25T05:29:15.214Z,10.60
2023-01-25T05:32:23.140Z,12.00
2023-01-25T05:35:11.246Z,11.70
2023-01-25T05:38:00.396Z,9.70
2023-01-25T05:40:48.623Z,11.50
2023-01-25T05:43:36.552Z,11.30
2023-01-25T05:46:28.118Z,10.70
2023-01-25T05:49:18.242Z,11.20
2023-01-25T05:52:06.187Z,10.70
2023-01-25T05:54:54.418Z,9.70
2023-01-25T05:57:42.732Z,12.10
2023-01-25T06:00:30.568Z,12.40
2023-01-25T06:03:18.211Z,10.30
2023-01-25T06:06:07.051Z,9.00
2023-01-25T06:08:55.842Z,10.00
2023-01-25T06:11:47.369Z,11.20
2023-01-25T06:14:35.233Z,10.90
2023-01-25T06:17:24.066Z,11.20
2023-01-25T06:20:40.735Z,10.30
2023-01-25T06:23:29.321Z,9.10
2023-01-25T06:26:17.732Z,8.70
2023-01-25T06:29:07.047Z,11.50
2023-01-25T06:31:55.872Z,9.50
2023-01-25T06:34:43.863Z,10.10
2023-01-25T06:37:37.528Z,8.70
2023-01-25T06:40:26.749Z,10.30
2023-01-25T06:43:14.767Z,8.10
2023-01-25T06:46:06.470Z,9.30
2023-01-25T06:48:54.296Z,10.30
2023-01-25T06:51:42.172Z,11.30
2023-01-25T06:54:30.295Z,10.40
2023-01-25T06:57:18.284Z,11.30
2023-01-25T07:00:08.804Z,8.90
2023-01-25T07:02:56.988Z,9.80
2023-01-25T07:05:44.882Z,8.30
2023-01-25T07:08:35.000Z,9.10
2023-01-25T07:11:23.165Z,8.60
2023-01-25T07:14:11.207Z,9.50
2023-01-25T07:17:01.076Z,10.50
2023-01-25T07:19:49.980Z,10.70
2023-01-25T07:22:37.937Z,10.50
2023-01-25T07:25:26.075Z,10.80
2023-01-25T07:28:15.257Z,8.90
2023-01-25T07:31:07.614Z,7.90
2023-01-25T07:33:58.440Z,10.70
2023-01-25T07:36:47.148Z,9.10
2023-01-25T07:39:35.944Z,9.20
2023-01-25T07:42:25.357Z,8.60
2023-01-25T07:45:31.040Z,11.00
2023-01-25T07:48:20.661Z,10.90
2023-01-25T07:51:22.958Z,10.10
2023-01-25T07:54:12.530Z,11.60
2023-01-25T07:57:00.228Z,9.50
2023-01-25T07:59:48.286Z,8.30
2023-01-25T08:02:36.394Z,9.10
2023-01-25T08:05:25.515Z,8.60
2023-01-25T08:08:13.212Z,9.90
2023-01-25T08:11:26.692Z,9.60
2023-01-25T08:14:15.325Z,10.40
2023-01-25T08:17:03.161Z,11.60
2023-01-25T08:19:50.713Z,10.50
2023-01-25T08:22:38.754Z,9.70
2023-01-25T08:25:26.916Z,10.00
2023-01-25T08:28:15.024Z,9.80
2023-01-25T08:31:07.764Z,9.80
2023-01-25T08:33:56.617Z,11.00
2023-01-25T08:36:44.617Z,11.10
2023-01-25T08:39:32.414Z,10.00
2023-01-25T08:42:21.548Z,11.60
2023-01-25T08:45:11.134Z,10.20
2023-01-25T08:47:59.294Z,10.30
2023-01-25T08:50:47.559Z,9.60
2023-01-25T08:53:35.610Z,9.40
2023-01-25T08:56:23.314Z,10.40
2023-01-25T08:59:13.096Z,11.40
2023-01-25T09:02:01.338Z,10.50
2023-01-25T09:04:49.601Z,10.90
2023-01-25T09:07:38.963Z,10.10
2023-01-25T09:10:27.036Z,11.10
2023-01-25T09:13:14.698Z,11.00
2023-01-25T09:16:07.775Z,10.70
2023-01-25T09:19:06.102Z,12.00
2023-01-25T09:21:54.080Z,10.50
2023-01-25T09:24:42.197Z,9.20
2023-01-25T09:27:30.025Z,11.50
2023-01-25T09:30:19.583Z,12.00
2023-01-25T09:33:09.114Z,10.20
2023-01-25T09:35:57.196Z,10.70
2023-01-25T09:38:46.038Z,9.80
2023-01-25T09:41:42.846Z,9.00
2023-01-25T09:44:45.256Z,9.50
2023-01-25T09:47:46.308Z,9.20
2023-01-25T09:51:01.919Z,10.40
2023-01-25T09:53:53.652Z,8.70
2023-01-25T09:56:41.827Z,11.00
2023-01-25T09:59:31.386Z,12.60
2023-01-25T10:03:07.292Z,10.90
2023-01-25T10:06:01.240Z,11.20
2023-01-25T10:09:05.301Z,11.10
2023-01-25T10:11:53.193Z,12.00
2023-01-25T10:14:40.973Z,12.40
2023-01-25T10:17:41.338Z,12.70
2023-01-25T10:20:49.973Z,11.30
2023-01-25T10:24:04.646Z,11.30
2023-01-25T10:27:02.430Z,13.40
2023-01-25T10:29:56.551Z,14.50
2023-01-25T10:32:55.505Z,13.30
2023-01-25T10:35:47.943Z,14.90
2023-01-25T10:38:43.115Z,14.00
2023-01-25T10:41:41.260Z,13.00
2023-01-25T10:44:29.424Z,14.30
2023-01-25T10:47:50.977Z,15.70
2023-01-25T10:50:39.594Z,16.20
2023-01-25T10:53:37.437Z,15.60
2023-01-25T10:56:26.432Z,16.30
2023-01-25T10:59:29.200Z,17.30
2023-01-25T11:02:35.512Z,17.80
2023-01-25T11:05:41.910Z,19.00
2023-01-25T11:08:30.072Z,18.90
2023-01-25T11:11:37.411Z,19.90
2023-01-25T11:14:29.300Z,19.60
2023-01-25T11:17:31.611Z,19.70
2023-01-25T11:20:21.332Z,20.90
2023-01-25T11:23:27.732Z,20.30
2023-01-25T11:26:18.156Z,20.30
2023-01-25T11:29:11.576Z,21.50
2023-01-25T11:31:59.509Z,21.60
2023-01-25T11:34:49.697Z,20.30
2023-01-25T11:38:11.144Z,21.90
2023-01-25T11:41:28.488Z,22.00
2023-01-25T11:44:38.080Z,22.60
2023-01-25T11:47:42.611Z,23.50
2023-01-25T11:50:49.707Z,22.20
2023-01-25T11:54:08.476Z,22.30
2023-01-25T11:57:01.695Z,25.20
2023-01-25T12:00:14.346Z,23.10
2023-01-25T12:03:08.961Z,21.60
2023-01-25T12:06:23.679Z,23.00
2023-01-25T12:09:46.287Z,23.40
2023-01-25T12:12:58.085Z,22.20
2023-01-25T12:16:53.392Z,23.90
2023-01-25T12:20:35.514Z,21.60
2023-01-25T12:23:32.907Z,20.10
2023-01-25T12:26:42.561Z,22.20
2023-01-25T12:29:36.531Z,22.40
2023-01-25T12:32:41.405Z,22.40
2023-01-25T12:35:41.723Z,22.70
2023-01-25T12:39:12.750Z,21.10
2023-01-25T12:42:35.541Z,21.90
2023-01-25T12:45:38.216Z,19.50
2023-01-25T12:48:41.359Z,19.00
2023-01-25T12:51:42.326Z,21.40
2023-01-25T12:54:38.112Z,18.90
2023-01-25T12:57:44.581Z,18.50
2023-01-25T13:00:57.034Z,18.70
2023-01-25T13:04:03.780Z,17.60
2023-01-25T13:07:10.915Z,19.70
2023-01-25T13:10:12.547Z,19.00
2023-01-25T13:13:04.250Z,19.10
2023-01-25T13:15:53.661Z,17.30
2023-01-25T13:18:41.890Z,18.70
2023-01-25T13:21:47.202Z,19.40
2023-01-25T13:25:05.032Z,18.10
2023-01-25T13:27:53.266Z,17.50
2023-01-25T13:30:54.046Z,18.70
2023-01-25T13:33:43.547Z,21.20
2023-01-25T13:36:43.525Z,17.90
2023-01-25T13:39:31.786Z,16.20
2023-01-25T13:42:25.580Z,18.60
2023-01-25T13:45:20.564Z,17.20
2023-01-25T13:48:19.716Z,17.70
2023-01-25T13:51:14.332Z,19.50
2023-01-25T13:54:02.754Z,19.20
2023-01-25T13:57:12.799Z,15.00
2023-01-25T14:00:11.261Z,19.60
2023-01-25T14:02:59.159Z,18.00
2023-01-25T14:05:57.039Z,17.30
2023-01-25T14:08:47.602Z,17.70
2023-01-25T14:11:45.582Z,19.50
2023-01-25T14:14:35.765Z,17.50
2023-01-25T14:17:24.853Z,14.40
2023-01-25T14:20:21.998Z,19.50
2023-01-25T14:23:30.741Z,18.40
2023-01-25T14:26:28.415Z,16.60
2023-01-25T14:29:35.391Z,19.30
2023-01-25T14:32:26.648Z,19.20
2023-01-25T14:35:58.608Z,16.10
2023-01-25T14:38:47.910Z,16.00
2023-01-25T14:41:48.725Z,18.50
2023-01-25T14:44:47.850Z,16.70
2023-01-25T14:47:35.855Z,17.70
2023-01-25T14:50:39.355Z,18.10
2023-01-25T14:53:27.280Z,21.40
2023-01-25T14:56:22.392Z,22.40
2023-01-25T14:59:41.057Z,23.40
2023-01-25T15:02:44.903Z,22.40
2023-01-25T15:05:37.392Z,21.20
2023-01-25T15:08:29.187Z,19.20
2023-01-25T15:11:45.645Z,18.70
2023-01-25T15:14:33.882Z,17.30
2023-01-25T15:17:50.141Z,19.20
2023-01-25T15:20:42.016Z,14.90
2023-01-25T15:23:30.079Z,15.40
2023-01-25T15:26:25.357Z,15.70
2023-01-25T15:29:23.215Z,15.30
2023-01-25T15:32:21.359Z,16.60
2023-01-25T15:35:19.245Z,24.70
2023-01-25T15:38:12.771Z,25.20
2023-01-25T15:41:01.667Z,25.60
2023-01-25T15:43:50.373Z,25.70
2023-01-25T15:46:44.007Z,23.80
2023-01-25T15:49:39.708Z,24.10
2023-01-25T15:52:29.333Z,22.30
2023-01-25T15:55:17.511Z,17.30
2023-01-25T15:58:05.381Z,16.50
2023-01-25T16:00:53.697Z,14.60
2023-01-25T16:03:42.071Z,16.40
2023-01-25T16:06:40.750Z,15.90
2023-01-25T16:09:33.322Z,14.60
2023-01-25T16:12:22.408Z,15.00
2023-01-25T16:15:11.288Z,16.80
2023-01-25T16:17:59.321Z,19.80
2023-01-25T16:20:47.186Z,21.60
2023-01-25T16:23:35.328Z,20.60
2023-01-25T16:26:28.802Z,22.20
2023-01-25T16:29:16.556Z,23.90
2023-01-25T16:32:04.616Z,21.40
2023-01-25T16:34:52.412Z,21.20
2023-01-25T16:37:40.331Z,17.30
2023-01-25T16:40:36.637Z,18.60
2023-01-25T16:43:26.996Z,15.50
2023-01-25T16:46:23.907Z,15.70
2023-01-25T16:49:20.038Z,17.20
2023-01-25T16:52:08.292Z,16.70
2023-01-25T16:54:56.731Z,15.10
2023-01-25T16:57:48.694Z,21.90
2023-01-25T17:00:36.927Z,23.00
2023-01-25T17:03:25.095Z,22.60
2023-01-25T17:06:30.334Z,23.80
2023-01-25T17:09:25.544Z,21.60
2023-01-25T17:12:13.884Z,22.60
2023-01-25T17:15:01.903Z,22.50
2023-01-25T17:17:52.232Z,23.30
2023-01-25T17:20:40.307Z,22.10
2023-01-25T17:23:28.741Z,14.70
2023-01-25T17:26:20.541Z,16.10
2023-01-25T17:29:10.276Z,14.40
2023-01-25T17:31:59.930Z,13.90
2023-01-25T17:34:48.020Z,19.30
2023-01-25T17:37:35.996Z,20.70
2023-01-25T17:40:24.297Z,20.00
2023-01-25T17:43:12.007Z,21.50
2023-01-25T17:46:29.855Z,20.00
2023-01-25T17:49:18.584Z,18.20
2023-01-25T17:52:06.368Z,18.10
2023-01-25T17:54:54.500Z,19.80
2023-01-25T17:57:42.550Z,21.00
2023-01-25T18:00:31.491Z,20.10
2023-01-25T18:03:19.770Z,16.10
2023-01-25T18:06:11.376Z,16.40
2023-01-25T18:09:02.453Z,17.30
2023-01-25T18:11:50.479Z,12.10
2023-01-25T18:14:38.215Z,18.10
2023-01-25T18:17:26.196Z,17.40
2023-01-25T18:20:14.809Z,18.50
2023-01-25T18:23:02.617Z,16.80
2023-01-25T18:25:50.844Z,15.00
2023-01-25T18:28:38.910Z,17.80
2023-01-25T18:31:27.547Z,14.40
2023-01-25T18:34:15.884Z,16.40
2023-01-25T18:37:17.866Z,15.10
2023-01-25T18:40:07.681Z,14.60
2023-01-25T18:42:55.888Z,15.20
2023-01-25T18:45:44.244Z,16.20
2023-01-25T18:48:32.643Z,15.60
2023-01-25T18:51:22.633Z,16.60
2023-01-25T18:54:10.512Z,13.90
2023-01-25T18:56:58.108Z,14.20
2023-01-25T18:59:46.121Z,13.70
2023-01-25T19:02:33.878Z,14.00
2023-01-25T19:05:21.880Z,18.30
2023-01-25T19:08:09.654Z,15.90
2023-01-25T19:11:06.834Z,17.90
2023-01-25T19:13:54.774Z,16.20
2023-01-25T19:16:42.641Z,19.00
2023-01-25T19:19:33.711Z,16.30
2023-01-25T19:22:21.666Z,15.50
2023-01-25T19:25:10.173Z,14.50
2023-01-25T19:27:57.899Z,14.10
2023-01-25T19:30:45.962Z,16.80
2023-01-25T19:33:35.007Z,18.60
2023-01-25T19:36:23.342Z,17.70
2023-01-25T19:39:12.114Z,17.00
2023-01-25T19:42:00.195Z,17.10
2023-01-25T19:44:48.680Z,17.70
2023-01-25T19:47:36.989Z,19.00
2023-01-25T19:50:24.836Z,16.30
2023-01-25T19:53:12.406Z,14.60
2023-01-25T19:56:05.482Z,14.00
2023-01-25T19:58:56.982Z,14.30
2023-01-25T20:01:48.100Z,13.70
2023-01-25T20:04:36.435Z,17.00
2023-01-25T20:07:25.815Z,17.10
2023-01-25T20:10:13.688Z,17.90
2023-01-25T20:13:01.593Z,18.40
2023-01-25T20:15:49.645Z,16.90
2023-01-25T20:18:38.149Z,15.20
2023-01-25T20:21:27.822Z,16.60
2023-01-25T20:24:15.946Z,16.40
2023-01-25T20:27:04.664Z,15.10
2023-01-25T20:29:53.898Z,16.30
2023-01-25T20:32:41.799Z,17.60
2023-01-25T20:35:30.368Z,16.60
2023-01-25T20:38:18.468Z,18.70
2023-01-25T20:41:14.290Z,16.00
2023-01-25T20:44:11.315Z,17.20
2023-01-25T20:46:59.695Z,15.40
2023-01-25T20:49:47.843Z,14.10
2023-01-25T20:52:36.106Z,15.50
2023-01-25T20:55:24.054Z,14.50
2023-01-25T20:58:12.058Z,16.90
2023-01-25T21:01:00.182Z,16.00
2023-01-25T21:03:49.335Z,15.20
2023-01-25T21:06:36.945Z,17.30
2023-01-25T21:09:28.283Z,16.50
2023-01-25T21:12:15.946Z,16.60
2023-01-25T21:15:04.347Z,15.90
2023-01-25T21:17:52.829Z,18.30
2023-01-25T21:20:40.616Z,15.10
2023-01-25T21:23:29.844Z,15.20
2023-01-25T21:26:21.302Z,14.70
2023-01-25T21:29:09.577Z,14.10
2023-01-25T21:31:59.147Z,16.10
2023-01-25T21:34:47.139Z,18.30
2023-01-25T21:37:35.233Z,17.20
2023-01-25T21:40:22.988Z,17.50
2023-01-25T21:43:11.795Z,15.30
2023-01-25T21:46:14.699Z,15.60
2023-01-25T21:49:25.258Z,15.60
2023-01-25T21:52:13.192Z,13.70
2023-01-25T21:55:00.973Z,14.20
2023-01-25T21:57:49.115Z,14.20
2023-01-25T22:00:37.270Z,15.70
2023-01-25T22:03:25.030Z,17.40
2023-01-25T22:06:12.937Z,18.10
2023-01-25T22:09:01.539Z,15.90
2023-01-25T22:11:50.983Z,17.00
2023-01-25T22:14:38.848Z,17.70
2023-01-25T22:17:28.030Z,17.10
2023-01-25T22:20:16.368Z,12.70
2023-01-25T22:23:04.443Z,14.80
2023-01-25T22:26:13.984Z,16.60
2023-01-25T22:29:01.828Z,12.70
2023-01-25T22:31:49.794Z,13.10
2023-01-25T22:34:38.128Z,12.90
2023-01-25T22:37:25.801Z,13.30
2023-01-25T22:40:14.356Z,15.30
2023-01-25T22:43:02.255Z,12.90
2023-01-25T22:45:52.516Z,17.70
2023-01-25T22:48:40.649Z,16.30
2023-01-25T22:51:30.968Z,17.50
2023-01-25T22:54:19.029Z,18.20
2023-01-25T22:57:07.175Z,17.20
2023-01-25T22:59:55.050Z,16.50
2023-01-25T23:02:42.796Z,15.60
2023-01-25T23:05:31.006Z,12.50
2023-01-25T23:08:18.936Z,14.80
2023-01-25T23:11:13.760Z,13.70
2023-01-25T23:14:20.951Z,14.50
2023-01-25T23:17:27.193Z,16.60
2023-01-25T23:20:15.108Z,17.60
2023-01-25T23:23:03.359Z,15.90
2023-01-25T23:25:51.635Z,14.50
2023-01-25T23:28:39.604Z,14.30
2023-01-25T23:31:27.628Z,15.50
2023-01-25T23:34:15.524Z,14.30
2023-01-25T23:37:04.045Z,11.60
2023-01-25T23:39:52.287Z,15.20
2023-01-25T23:42:40.887Z,15.00
2023-01-25T23:45:28.897Z,16.50
2023-01-25T23:48:16.688Z,15.70
2023-01-25T23:51:04.760Z,15.60
2023-01-25T23:53:53.543Z,13.60
2023-01-25T23:56:41.431Z,13.00
2023-01-25T23:59:29.547Z,11.50
